• Join FlightAware (Why Join?)
  • Login
  • US Flag 
09:13PM EDT


 

Airport Tracker/Info


-or-


 

Live Flight TrackerFlight Track Log ✈ N845AE ✈ 13-Apr-2013 ✈ KMEM - KORD

Flight Track Log - Related Links

Times and Time Zones

All times are in EDT time to prevent confusion due to time zone crossing. See the N845AE flight status page for this flight to view local times or setup timezone preferences in your user account.

Time Position Orientation Groundspeed Altitude Reporting Facility
EDT Latitude Longitude Course Direction KTS MPH feet Rate Location/Type
03:40PM 35.0333 -89.9667 353° North 152 175 700  Level KMEM
03:42PM 34.9500 -90.0000 198° South 218 251 4,200 2,460 Climbing KMEM
03:43PM 35.3374 -89.9991 356° North  Level FlightAware Approximate
03:43PM 34.9500 -90.0667 270° West 207 238 6,900  Level KMEM
03:44PM 35.4358 -90.0066 356° North  Level FlightAware Approximate
03:44PM 34.9667 -90.1500 284° West 256 295 9,100  Level KMEM
03:45PM 35.5341 -90.0142 356° North  Level FlightAware Approximate
03:45PM 35.0281 -90.2050 324° Northwest 289 333 11,100  Level Memphis Center
03:46PM 35.6229 -90.0175 353° North  Level FlightAware Approximate
03:46PM 35.1158 -90.1997 North 282 325 13,000  Level Memphis Center
03:47PM 35.2075 -90.1742 13° North 319 367 14,900 1,860 Climbing Memphis Center
03:48PM 35.3014 -90.1536 10° North 335 386 16,800 1,680 Climbing Memphis Center
03:49PM 35.3825 -90.1331 12° North 335 386 18,300 1,680 Climbing Memphis Center
03:50PM 35.4744 -90.1303 North 329 379 20,200 1,800 Climbing Memphis Center
03:51PM 35.5661 -90.1528 349° North 330 380 21,900 1,620 Climbing Memphis Center
03:52PM 35.6581 -90.1756 349° North 336 387 23,500 1,500 Climbing Memphis Center
03:53PM 35.7456 -90.2011 347° North 331 381 25,000 1,500 Climbing Memphis Center
03:54PM 35.8417 -90.2264 348° North 336 387 26,500 1,500 Climbing Memphis Center
03:55PM 35.9356 -90.2519 348° North 336 387 28,100 1,500 Climbing Memphis Center
03:56PM 36.0314 -90.2747 349° North 341 392 29,600 1,320 Climbing Memphis Center
03:57PM 36.1272 -90.3006 348° North 341 392 30,800 1,080 Climbing Memphis Center
03:58PM 36.2275 -90.3261 348° North 354 407 31,800 900 Climbing Memphis Center
03:59PM 36.3317 -90.3544 348° North 365 420 32,700 900 Climbing Memphis Center
04:00PM 36.4358 -90.3775 350° North 376 433 33,700 960 Climbing Memphis Center
04:01PM 36.5442 -90.4061 348° North 381 438 34,700 840 Climbing Memphis Center
04:03PM 36.7439 -90.4522 350° North 399 459 36,000 420 Climbing Kansas City Center
04:04PM 36.8547 -90.4833 347° North 403 464 36,000  Level Kansas City Center
04:05PM 36.9681 -90.5122 348° North 410 472 36,000  Level Kansas City Center
04:06PM 37.0822 -90.5417 348° North 414 476 36,000  Level Kansas City Center
04:07PM 37.1978 -90.5694 349° North 419 482 36,000  Level Kansas City Center
04:08PM 37.3086 -90.5994 348° North 410 472 36,000  Level Kansas City Center
04:09PM 37.4222 -90.6278 349° North 405 466 36,000  Level Kansas City Center
04:10PM 37.5292 -90.6581 347° North 397 457 36,000  Level Kansas City Center
04:11PM 37.6364 -90.6875 348° North 395 455 36,000  Level Kansas City Center
04:12PM 37.7417 -90.7161 348° North 392 451 36,000  Level Kansas City Center
04:13PM 37.8667 -90.7489 348° North 387 445 36,000  Level Kansas City Center
04:14PM 37.9694 -90.7753 349° North 379 436 36,000  Level Kansas City Center
04:15PM 38.0708 -90.8022 348° North 374 430 36,000  Level Kansas City Center
04:16PM 38.1769 -90.8158 354° North 388 447 36,000  Level Kansas City Center
04:17PM 38.2869 -90.7975 North 398 458 36,000  Level Kansas City Center
04:18PM 38.3975 -90.7756 North 401 461 36,000  Level Kansas City Center
04:19PM 38.5086 -90.7533 North 401 461 36,000  Level Kansas City Center
04:20PM 38.6200 -90.7319 North 402 463 36,000  Level Kansas City Center
04:21PM 38.7322 -90.7100 North 402 463 36,000  Level Kansas City Center
04:22PM 38.8436 -90.6881 North 401 461 36,000  Level Kansas City Center
04:23PM 38.9761 -90.6619 North 399 459 36,000  Level Kansas City Center
04:24PM 39.0850 -90.6147 19° North 407 468 36,000  Level Kansas City Center
04:25PM 39.1925 -90.5617 21° North 414 476 36,000  Level Kansas City Center
04:26PM 39.3003 -90.5103 20° North 412 474 36,000 -120 Level Kansas City Center
04:27PM 39.4067 -90.4567 21° North 411 473 35,800 -960 Descending Kansas City Center
04:28PM 39.5183 -90.4036 20° North 423 487 34,100 -1,380 Descending Kansas City Center
04:30PM 39.6294 -90.3508 20° North 424 488 33,000 -540 Descending Kansas City Center
04:31PM 39.7558 -90.2886 21° North 412 474 33,000  Level Kansas City Center
04:32PM 39.8650 -90.2339 21° North 416 479 33,000  Level Kansas City Center
04:32PM 39.8867 -90.2264 15° North 417 480 33,000  Level Chicago Center
04:33PM 39.9969 -90.1711 21° North 424 488 33,000  Level Chicago Center
04:34PM 40.1281 -90.1067 21° North 419 482 33,000  Level Chicago Center
04:35PM 40.2400 -90.0508 21° North 427 491 33,000  Level Chicago Center
04:36PM 40.3500 -89.9961 21° North 425 489 33,000 -240 Level Chicago Center
04:37PM 40.4608 -89.9406 21° North 425 489 32,600 -780 Descending Chicago Center
04:38PM 40.5764 -89.8833 21° North 424 488 31,500 -1,080 Descending Chicago Center
04:39PM 40.6814 -89.8303 21° North 411 473 30,400 -1,260 Descending Chicago Center
04:40PM 40.7842 -89.7786 21° North 400 460 29,000 -1,440 Descending Chicago Center
04:41PM 40.8900 -89.7247 21° North 402 463 27,500 -1,740 Descending Chicago Center
04:42PM 41.0139 -89.6619 21° North 437 503 25,500 -1,800 Descending Chicago Center
04:43PM 41.1231 -89.6067 21° North 424 488 23,900 -1,500 Descending Chicago Center
04:44PM 41.2014 -89.4889 49° Northeast 443 510 22,400 -2,100 Descending Chicago Center
04:45PM 41.2731 -89.3094 62° Northeast 456 525 19,600 -2,400 Descending Chicago Center
04:46PM 41.3253 -89.1794 62° Northeast 442 509 17,600 -2,400 Descending Chicago Center
04:47PM 41.3803 -89.0403 62° Northeast 428 493 14,700 -2,940 Descending Chicago Center
04:48PM 41.4439 -88.8786 62° Northeast 413 475 11,600 -1,800 Descending Chicago Center
04:49PM 41.4942 -88.7531 62° Northeast 388 447 11,000 -300 Descending Chicago Center
04:50PM 41.5439 -88.6278 62° Northeast 383 441 11,000 -120 Level Chicago Center
04:51PM 41.5950 -88.4986 62° Northeast 391 450 10,800 -540 Descending Chicago Center
04:52PM 41.6556 -88.3839 55° Northeast 377 434 10,000 -420 Descending Chicago Center
04:53PM 41.7208 -88.2739 51° Northeast 375 432 10,000 -60 Level Chicago Center
04:55PM 41.7786 -88.1739 52° Northeast 334 384 9,900 -1,020 Descending Chicago Center
04:56PM 41.8289 -88.0869 52° Northeast 298 343 7,900 -1,440 Descending Chicago Center
04:57PM 41.8844 -87.9822 55° Northeast 289 333 7,000 -540 Descending Chicago Center
04:57PM 41.8833 -87.9000 91° East 287 330 7,000 -60 Level Chicago TRACON
04:58PM 41.8833 -87.8167 90° East 250 288 6,900 -780 Descending Chicago TRACON
04:59PM 41.8833 -87.7167 90° East 254 292 5,500 -1,440 Descending Chicago TRACON